createdAt,value
2022-10-24T00:01:13.556Z,14.30
2022-10-24T00:03:40.381Z,14.30
2022-10-24T00:06:08.590Z,14.30
2022-10-24T00:08:35.703Z,14.30
2022-10-24T00:11:08.796Z,14.40
2022-10-24T00:13:35.548Z,14.30
2022-10-24T00:16:02.154Z,14.30
2022-10-24T00:18:28.771Z,14.30
2022-10-24T00:20:55.533Z,14.40
2022-10-24T00:23:22.168Z,14.40
2022-10-24T00:25:48.743Z,14.30
2022-10-24T00:28:15.978Z,14.30
2022-10-24T00:30:42.615Z,14.50
2022-10-24T00:33:09.342Z,14.30
2022-10-24T00:35:35.965Z,14.20
2022-10-24T00:38:02.641Z,14.40
2022-10-24T00:40:29.463Z,14.10
2022-10-24T00:42:56.042Z,14.10
2022-10-24T00:45:43.910Z,14.20
2022-10-24T00:48:15.939Z,13.80
2022-10-24T00:50:44.160Z,13.90
2022-10-24T00:53:12.252Z,14.00
2022-10-24T00:55:40.505Z,14.10
2022-10-24T00:58:08.581Z,13.70
2022-10-24T01:00:36.336Z,13.90
2022-10-24T01:03:04.314Z,14.00
2022-10-24T01:05:39.691Z,14.00
2022-10-24T01:08:14.000Z,13.90
2022-10-24T01:10:47.373Z,13.80
2022-10-24T01:13:25.411Z,13.80
2022-10-24T01:16:00.682Z,13.80
2022-10-24T01:18:32.585Z,13.80
2022-10-24T01:21:25.714Z,13.70
2022-10-24T01:24:28.178Z,13.80
2022-10-24T01:27:08.520Z,14.00
2022-10-24T01:29:49.519Z,13.80
2022-10-24T01:32:30.637Z,13.80
2022-10-24T01:35:02.548Z,13.70
2022-10-24T01:37:35.091Z,13.80
2022-10-24T01:40:08.942Z,14.10
2022-10-24T01:42:38.021Z,14.20
2022-10-24T01:45:13.296Z,13.70
2022-10-24T01:47:44.715Z,13.70
2022-10-24T01:50:15.902Z,13.70
2022-10-24T01:52:45.647Z,13.70
2022-10-24T01:55:12.738Z,13.60
2022-10-24T01:57:39.709Z,13.70
2022-10-24T02:00:15.123Z,13.60
2022-10-24T02:02:45.225Z,13.60
2022-10-24T02:05:16.676Z,13.50
2022-10-24T02:07:46.451Z,13.10
2022-10-24T02:10:17.048Z,13.60
2022-10-24T02:12:51.871Z,13.40
2022-10-24T02:15:23.633Z,13.30
2022-10-24T02:17:50.713Z,13.30
2022-10-24T02:20:17.759Z,13.30
2022-10-24T02:22:51.281Z,13.30
2022-10-24T02:25:23.306Z,13.30
2022-10-24T02:27:53.075Z,13.30
2022-10-24T02:30:23.019Z,13.30
2022-10-24T02:32:53.567Z,13.70
2022-10-24T02:35:23.919Z,13.20
2022-10-24T02:37:54.585Z,12.90
2022-10-24T02:40:22.575Z,13.20
2022-10-24T02:42:54.723Z,13.20
2022-10-24T02:45:22.918Z,13.10
2022-10-24T02:47:55.150Z,13.10
2022-10-24T02:50:22.340Z,13.20
2022-10-24T02:52:49.200Z,13.10
2022-10-24T02:55:15.787Z,13.10
2022-10-24T02:57:42.464Z,13.00
2022-10-24T03:00:10.374Z,13.10
2022-10-24T03:02:37.715Z,13.00
2022-10-24T03:05:04.872Z,13.00
2022-10-24T03:07:31.478Z,12.70
2022-10-24T03:09:58.051Z,13.00
2022-10-24T03:12:25.668Z,13.10
2022-10-24T03:14:52.349Z,13.00
2022-10-24T03:17:18.938Z,13.10
2022-10-24T03:19:46.252Z,13.00
2022-10-24T03:22:12.789Z,13.00
2022-10-24T03:24:44.209Z,12.90
2022-10-24T03:27:21.213Z,13.00
2022-10-24T03:29:47.753Z,13.00
2022-10-24T03:32:14.451Z,12.90
2022-10-24T03:34:41.207Z,13.00
2022-10-24T03:37:09.490Z,12.60
2022-10-24T03:39:36.124Z,12.90
2022-10-24T03:42:02.749Z,12.90
2022-10-24T03:44:29.588Z,12.80
2022-10-24T03:46:56.241Z,13.30
2022-10-24T03:49:22.869Z,13.30
2022-10-24T03:51:49.517Z,13.00
2022-10-24T03:54:17.123Z,12.80
2022-10-24T03:56:44.955Z,12.80
2022-10-24T03:59:11.621Z,12.70
2022-10-24T04:01:40.908Z,12.80
2022-10-24T04:04:07.765Z,13.00
2022-10-24T04:06:36.471Z,12.80
2022-10-24T04:09:04.038Z,12.90
2022-10-24T04:11:31.566Z,12.70
2022-10-24T04:16:33.437Z,13.00
2022-10-24T04:19:00.023Z,12.70
2022-10-24T04:21:26.688Z,12.70
2022-10-24T04:23:53.541Z,12.50
2022-10-24T04:26:20.261Z,12.50
2022-10-24T04:28:48.069Z,12.70
2022-10-24T04:31:17.087Z,12.90
2022-10-24T04:33:46.436Z,12.60
2022-10-24T04:36:13.036Z,12.60
2022-10-24T04:38:40.008Z,12.60
2022-10-24T04:41:09.824Z,12.90
2022-10-24T04:43:38.645Z,12.60
2022-10-24T04:46:06.273Z,12.60
2022-10-24T04:48:32.952Z,12.60
2022-10-24T04:50:59.735Z,12.60
2022-10-24T04:53:26.399Z,12.60
2022-10-24T04:55:53.010Z,12.60
2022-10-24T04:58:20.161Z,12.60
2022-10-24T05:00:49.012Z,12.60
2022-10-24T05:03:17.185Z,12.50
2022-10-24T05:05:43.886Z,12.50
2022-10-24T05:08:10.753Z,12.50
2022-10-24T05:10:37.646Z,12.60
2022-10-24T05:13:04.563Z,12.50
2022-10-24T05:15:31.137Z,12.50
2022-10-24T05:17:58.401Z,12.80
